sensor_id;sensor_type;location;lat;lon;timestamp;temperature;humidity
37242;DHT22;23135;51.078;12.108;2023-08-06T00:01:51;16.20;99.90
37242;DHT22;23135;51.078;12.108;2023-08-06T00:04:16;16.20;99.90
37242;DHT22;23135;51.078;12.108;2023-08-06T00:06:42;16.20;99.90
37242;DHT22;23135;51.078;12.108;2023-08-06T00:09:08;16.30;99.90
37242;DHT22;23135;51.078;12.108;2023-08-06T00:11:33;16.20;99.90
37242;DHT22;23135;51.078;12.108;2023-08-06T00:13:59;16.30;99.90
37242;DHT22;23135;51.078;12.108;2023-08-06T00:16:25;16.20;99.90
37242;DHT22;23135;51.078;12.108;2023-08-06T00:18:50;16.20;99.90
37242;DHT22;23135;51.078;12.108;2023-08-06T00:21:16;16.20;99.90
37242;DHT22;23135;51.078;12.108;2023-08-06T00:23:41;16.10;99.90
37242;DHT22;23135;51.078;12.108;2023-08-06T00:26:07;16.20;99.90
37242;DHT22;23135;51.078;12.108;2023-08-06T00:28:33;16.20;99.90
37242;DHT22;23135;51.078;12.108;2023-08-06T00:30:59;16.20;99.90
37242;DHT22;23135;51.078;12.108;2023-08-06T00:33:24;16.30;99.90
37242;DHT22;23135;51.078;12.108;2023-08-06T00:35:51;16.30;99.90
37242;DHT22;23135;51.078;12.108;2023-08-06T00:38:16;16.20;99.90
37242;DHT22;23135;51.078;12.108;2023-08-06T00:40:42;16.20;99.90
37242;DHT22;23135;51.078;12.108;2023-08-06T00:43:08;16.20;99.90
37242;DHT22;23135;51.078;12.108;2023-08-06T00:45:35;16.20;99.90
37242;DHT22;23135;51.078;12.108;2023-08-06T00:48:02;16.20;99.90
37242;DHT22;23135;51.078;12.108;2023-08-06T00:50:28;16.20;99.90
37242;DHT22;23135;51.078;12.108;2023-08-06T00:52:54;16.20;99.90
37242;DHT22;23135;51.078;12.108;2023-08-06T00:55:20;16.20;99.90
37242;DHT22;23135;51.078;12.108;2023-08-06T00:57:46;16.20;99.90
37242;DHT22;23135;51.078;12.108;2023-08-06T01:00:12;16.10;99.90
37242;DHT22;23135;51.078;12.108;2023-08-06T01:02:38;16.10;99.90
37242;DHT22;23135;51.078;12.108;2023-08-06T01:05:04;16.10;99.90
37242;DHT22;23135;51.078;12.108;2023-08-06T01:13:11;16.00;99.90
37242;DHT22;23135;51.078;12.108;2023-08-06T01:15:46;15.90;99.90
37242;DHT22;23135;51.078;12.108;2023-08-06T01:18:13;15.90;99.90
37242;DHT22;23135;51.078;12.108;2023-08-06T01:20:39;15.90;99.90
37242;DHT22;23135;51.078;12.108;2023-08-06T01:23:04;15.90;99.90
37242;DHT22;23135;51.078;12.108;2023-08-06T01:25:33;15.80;99.90
37242;DHT22;23135;51.078;12.108;2023-08-06T01:29:07;15.80;99.90
37242;DHT22;23135;51.078;12.108;2023-08-06T01:31:12;15.80;99.90
37242;DHT22;23135;51.078;12.108;2023-08-06T01:33:43;15.80;99.90
37242;DHT22;23135;51.078;12.108;2023-08-06T01:36:09;15.70;99.90
37242;DHT22;23135;51.078;12.108;2023-08-06T01:38:35;15.70;99.90
37242;DHT22;23135;51.078;12.108;2023-08-06T01:41:01;15.70;99.90
37242;DHT22;23135;51.078;12.108;2023-08-06T01:43:26;15.70;99.90
37242;DHT22;23135;51.078;12.108;2023-08-06T01:45:52;15.70;99.90
37242;DHT22;23135;51.078;12.108;2023-08-06T01:48:18;15.70;99.90
37242;DHT22;23135;51.078;12.108;2023-08-06T01:50:43;15.70;99.90
37242;DHT22;23135;51.078;12.108;2023-08-06T01:53:09;15.60;99.90
37242;DHT22;23135;51.078;12.108;2023-08-06T01:55:34;15.60;99.90
37242;DHT22;23135;51.078;12.108;2023-08-06T01:58:00;15.60;99.90
37242;DHT22;23135;51.078;12.108;2023-08-06T02:00:25;15.60;99.90
37242;DHT22;23135;51.078;12.108;2023-08-06T02:02:53;15.50;99.90
37242;DHT22;23135;51.078;12.108;2023-08-06T02:05:18;15.50;99.90
37242;DHT22;23135;51.078;12.108;2023-08-06T02:07:44;15.50;99.90
37242;DHT22;23135;51.078;12.108;2023-08-06T02:10:10;15.50;99.90
37242;DHT22;23135;51.078;12.108;2023-08-06T02:12:35;15.50;99.90
37242;DHT22;23135;51.078;12.108;2023-08-06T02:15:01;15.50;99.90
37242;DHT22;23135;51.078;12.108;2023-08-06T02:17:26;15.40;99.90
37242;DHT22;23135;51.078;12.108;2023-08-06T02:19:52;15.50;99.90
37242;DHT22;23135;51.078;12.108;2023-08-06T02:22:17;15.40;99.90
37242;DHT22;23135;51.078;12.108;2023-08-06T02:24:43;15.40;99.90
37242;DHT22;23135;51.078;12.108;2023-08-06T02:27:09;15.40;99.90
37242;DHT22;23135;51.078;12.108;2023-08-06T02:29:34;15.40;99.90
37242;DHT22;23135;51.078;12.108;2023-08-06T02:32:00;15.30;99.90
37242;DHT22;23135;51.078;12.108;2023-08-06T02:34:27;15.20;99.90
37242;DHT22;23135;51.078;12.108;2023-08-06T02:36:53;15.20;99.90
37242;DHT22;23135;51.078;12.108;2023-08-06T02:39:19;15.20;99.90
37242;DHT22;23135;51.078;12.108;2023-08-06T02:41:44;15.20;99.90
37242;DHT22;23135;51.078;12.108;2023-08-06T02:44:10;15.20;99.90
37242;DHT22;23135;51.078;12.108;2023-08-06T02:46:35;15.10;99.90
37242;DHT22;23135;51.078;12.108;2023-08-06T02:49:01;15.10;99.90
37242;DHT22;23135;51.078;12.108;2023-08-06T02:51:27;15.00;99.90
37242;DHT22;23135;51.078;12.108;2023-08-06T02:53:52;15.00;99.90
37242;DHT22;23135;51.078;12.108;2023-08-06T02:56:18;15.00;99.90
37242;DHT22;23135;51.078;12.108;2023-08-06T02:58:43;14.90;99.90
37242;DHT22;23135;51.078;12.108;2023-08-06T03:01:09;14.90;99.90
37242;DHT22;23135;51.078;12.108;2023-08-06T03:03:35;14.90;99.90
37242;DHT22;23135;51.078;12.108;2023-08-06T03:06:00;14.90;99.90
37242;DHT22;23135;51.078;12.108;2023-08-06T03:08:26;14.80;99.90
37242;DHT22;23135;51.078;12.108;2023-08-06T03:10:52;14.80;99.90
37242;DHT22;23135;51.078;12.108;2023-08-06T03:13:18;14.70;99.90
37242;DHT22;23135;51.078;12.108;2023-08-06T03:15:57;14.70;99.90
37242;DHT22;23135;51.078;12.108;2023-08-06T03:18:23;14.70;99.90
37242;DHT22;23135;51.078;12.108;2023-08-06T03:20:49;14.60;99.90
37242;DHT22;23135;51.078;12.108;2023-08-06T03:23:15;14.60;99.90
37242;DHT22;23135;51.078;12.108;2023-08-06T03:25:41;14.60;99.90
37242;DHT22;23135;51.078;12.108;2023-08-06T03:28:06;14.60;99.90
37242;DHT22;23135;51.078;12.108;2023-08-06T03:30:32;14.60;99.90
37242;DHT22;23135;51.078;12.108;2023-08-06T03:32:57;14.60;99.90
37242;DHT22;23135;51.078;12.108;2023-08-06T03:35:23;14.60;99.90
37242;DHT22;23135;51.078;12.108;2023-08-06T03:37:48;14.60;99.90
37242;DHT22;23135;51.078;12.108;2023-08-06T03:40:15;14.50;99.90
37242;DHT22;23135;51.078;12.108;2023-08-06T03:42:41;14.50;99.90
37242;DHT22;23135;51.078;12.108;2023-08-06T03:45:07;14.50;99.90
37242;DHT22;23135;51.078;12.108;2023-08-06T03:47:32;14.50;99.90
37242;DHT22;23135;51.078;12.108;2023-08-06T03:49:58;14.50;99.90
37242;DHT22;23135;51.078;12.108;2023-08-06T03:52:24;14.50;99.90
37242;DHT22;23135;51.078;12.108;2023-08-06T03:54:49;14.50;99.90
37242;DHT22;23135;51.078;12.108;2023-08-06T03:57:15;14.50;99.90
37242;DHT22;23135;51.078;12.108;2023-08-06T03:59:41;14.50;99.90
37242;DHT22;23135;51.078;12.108;2023-08-06T04:02:06;14.50;99.90
37242;DHT22;23135;51.078;12.108;2023-08-06T04:04:32;14.40;99.90
37242;DHT22;23135;51.078;12.108;2023-08-06T04:06:57;14.40;99.90
37242;DHT22;23135;51.078;12.108;2023-08-06T04:09:23;14.40;99.90
37242;DHT22;23135;51.078;12.108;2023-08-06T04:11:49;14.50;99.90
37242;DHT22;23135;51.078;12.108;2023-08-06T04:14:14;14.50;99.90
37242;DHT22;23135;51.078;12.108;2023-08-06T04:16:40;14.50;99.90
37242;DHT22;23135;51.078;12.108;2023-08-06T04:19:05;14.50;99.90
37242;DHT22;23135;51.078;12.108;2023-08-06T04:21:31;14.50;99.90
37242;DHT22;23135;51.078;12.108;2023-08-06T04:23:56;14.50;99.90
37242;DHT22;23135;51.078;12.108;2023-08-06T04:26:22;14.50;99.90
37242;DHT22;23135;51.078;12.108;2023-08-06T04:28:48;14.50;99.90
37242;DHT22;23135;51.078;12.108;2023-08-06T04:31:14;14.50;99.90
37242;DHT22;23135;51.078;12.108;2023-08-06T04:33:40;14.50;99.90
37242;DHT22;23135;51.078;12.108;2023-08-06T04:36:06;14.50;99.90
37242;DHT22;23135;51.078;12.108;2023-08-06T04:38:32;14.50;99.90
37242;DHT22;23135;51.078;12.108;2023-08-06T04:40:58;14.50;99.90
37242;DHT22;23135;51.078;12.108;2023-08-06T04:43:23;14.50;99.90
37242;DHT22;23135;51.078;12.108;2023-08-06T04:45:50;14.50;99.90
37242;DHT22;23135;51.078;12.108;2023-08-06T04:48:17;14.60;99.90
37242;DHT22;23135;51.078;12.108;2023-08-06T04:50:49;14.60;99.90
37242;DHT22;23135;51.078;12.108;2023-08-06T04:53:16;14.60;99.90
37242;DHT22;23135;51.078;12.108;2023-08-06T04:55:42;14.60;99.90
37242;DHT22;23135;51.078;12.108;2023-08-06T04:58:10;14.60;99.90
37242;DHT22;23135;51.078;12.108;2023-08-06T05:00:36;14.60;99.90
37242;DHT22;23135;51.078;12.108;2023-08-06T05:03:02;14.70;99.90
37242;DHT22;23135;51.078;12.108;2023-08-06T05:05:28;14.70;99.90
37242;DHT22;23135;51.078;12.108;2023-08-06T05:07:55;14.80;99.90
37242;DHT22;23135;51.078;12.108;2023-08-06T05:10:21;14.80;99.90
37242;DHT22;23135;51.078;12.108;2023-08-06T05:12:47;14.80;99.90
37242;DHT22;23135;51.078;12.108;2023-08-06T05:15:12;14.90;99.90
37242;DHT22;23135;51.078;12.108;2023-08-06T05:17:38;14.90;99.90
37242;DHT22;23135;51.078;12.108;2023-08-06T05:20:04;14.90;99.90
37242;DHT22;23135;51.078;12.108;2023-08-06T05:22:30;15.00;99.90
37242;DHT22;23135;51.078;12.108;2023-08-06T05:24:55;15.00;99.90
37242;DHT22;23135;51.078;12.108;2023-08-06T05:27:21;15.00;99.90
37242;DHT22;23135;51.078;12.108;2023-08-06T05:29:48;15.00;99.90
37242;DHT22;23135;51.078;12.108;2023-08-06T05:32:13;15.10;99.90
37242;DHT22;23135;51.078;12.108;2023-08-06T05:34:39;15.10;99.90
37242;DHT22;23135;51.078;12.108;2023-08-06T05:37:06;15.10;99.90
37242;DHT22;23135;51.078;12.108;2023-08-06T05:39:32;15.20;99.90
37242;DHT22;23135;51.078;12.108;2023-08-06T05:41:58;15.30;99.90
37242;DHT22;23135;51.078;12.108;2023-08-06T05:44:23;15.30;99.90
37242;DHT22;23135;51.078;12.108;2023-08-06T05:46:49;15.40;99.90
37242;DHT22;23135;51.078;12.108;2023-08-06T05:49:15;15.40;99.90
37242;DHT22;23135;51.078;12.108;2023-08-06T05:51:41;15.50;99.90
37242;DHT22;23135;51.078;12.108;2023-08-06T05:54:07;15.50;99.90
37242;DHT22;23135;51.078;12.108;2023-08-06T05:56:33;15.50;99.90
37242;DHT22;23135;51.078;12.108;2023-08-06T05:58:58;15.60;99.90
37242;DHT22;23135;51.078;12.108;2023-08-06T06:01:24;15.60;99.90
37242;DHT22;23135;51.078;12.108;2023-08-06T06:03:49;15.70;99.90
37242;DHT22;23135;51.078;12.108;2023-08-06T06:06:15;15.60;99.90
37242;DHT22;23135;51.078;12.108;2023-08-06T06:08:41;15.70;99.90
37242;DHT22;23135;51.078;12.108;2023-08-06T06:11:07;15.70;99.90
37242;DHT22;23135;51.078;12.108;2023-08-06T06:13:33;15.70;99.90
37242;DHT22;23135;51.078;12.108;2023-08-06T06:15:58;15.80;99.90
37242;DHT22;23135;51.078;12.108;2023-08-06T06:18:24;15.90;99.90
37242;DHT22;23135;51.078;12.108;2023-08-06T06:20:49;15.90;99.90
37242;DHT22;23135;51.078;12.108;2023-08-06T06:23:15;16.00;99.90
37242;DHT22;23135;51.078;12.108;2023-08-06T06:25:47;16.00;99.90
37242;DHT22;23135;51.078;12.108;2023-08-06T06:28:13;16.00;99.90
37242;DHT22;23135;51.078;12.108;2023-08-06T06:30:38;16.00;99.90
37242;DHT22;23135;51.078;12.108;2023-08-06T06:33:04;16.00;99.90
37242;DHT22;23135;51.078;12.108;2023-08-06T06:35:30;16.10;99.90
37242;DHT22;23135;51.078;12.108;2023-08-06T06:37:55;16.00;99.90
37242;DHT22;23135;51.078;12.108;2023-08-06T06:40:21;16.00;99.90
37242;DHT22;23135;51.078;12.108;2023-08-06T06:42:46;16.00;99.90
37242;DHT22;23135;51.078;12.108;2023-08-06T06:45:12;16.00;99.90
37242;DHT22;23135;51.078;12.108;2023-08-06T06:47:37;16.00;99.90
37242;DHT22;23135;51.078;12.108;2023-08-06T06:50:03;15.90;99.90
37242;DHT22;23135;51.078;12.108;2023-08-06T06:52:29;16.00;99.90
37242;DHT22;23135;51.078;12.108;2023-08-06T06:54:55;16.10;99.90
37242;DHT22;23135;51.078;12.108;2023-08-06T06:57:21;16.10;99.90
37242;DHT22;23135;51.078;12.108;2023-08-06T06:59:46;16.10;99.90
37242;DHT22;23135;51.078;12.108;2023-08-06T07:02:12;16.20;99.90
37242;DHT22;23135;51.078;12.108;2023-08-06T07:04:37;16.20;99.90
37242;DHT22;23135;51.078;12.108;2023-08-06T07:07:03;16.30;99.90
37242;DHT22;23135;51.078;12.108;2023-08-06T07:09:29;16.40;99.90
37242;DHT22;23135;51.078;12.108;2023-08-06T07:11:55;16.50;99.90
37242;DHT22;23135;51.078;12.108;2023-08-06T07:14:20;16.50;99.90
37242;DHT22;23135;51.078;12.108;2023-08-06T07:16:46;16.50;99.90
37242;DHT22;23135;51.078;12.108;2023-08-06T07:19:11;16.50;99.90
37242;DHT22;23135;51.078;12.108;2023-08-06T07:21:37;16.60;99.90
37242;DHT22;23135;51.078;12.108;2023-08-06T07:24:03;16.60;99.90
37242;DHT22;23135;51.078;12.108;2023-08-06T07:26:28;16.70;99.90
37242;DHT22;23135;51.078;12.108;2023-08-06T07:28:54;16.70;99.90
37242;DHT22;23135;51.078;12.108;2023-08-06T07:31:19;16.80;99.90
37242;DHT22;23135;51.078;12.108;2023-08-06T07:33:45;16.80;99.90
37242;DHT22;23135;51.078;12.108;2023-08-06T07:36:12;16.80;99.90
37242;DHT22;23135;51.078;12.108;2023-08-06T07:38:38;16.80;99.90
37242;DHT22;23135;51.078;12.108;2023-08-06T07:41:04;16.80;99.90
37242;DHT22;23135;51.078;12.108;2023-08-06T07:43:30;16.90;99.90
37242;DHT22;23135;51.078;12.108;2023-08-06T07:46:00;16.90;99.90
37242;DHT22;23135;51.078;12.108;2023-08-06T07:48:26;17.00;99.90
37242;DHT22;23135;51.078;12.108;2023-08-06T07:50:55;17.00;99.90
37242;DHT22;23135;51.078;12.108;2023-08-06T07:53:22;17.00;99.90
37242;DHT22;23135;51.078;12.108;2023-08-06T07:55:55;17.00;99.90
37242;DHT22;23135;51.078;12.108;2023-08-06T07:58:23;17.00;99.90
37242;DHT22;23135;51.078;12.108;2023-08-06T08:00:49;17.00;99.90
37242;DHT22;23135;51.078;12.108;2023-08-06T08:03:16;17.00;99.90
37242;DHT22;23135;51.078;12.108;2023-08-06T08:05:42;17.00;99.90
37242;DHT22;23135;51.078;12.108;2023-08-06T08:08:08;17.10;99.90
37242;DHT22;23135;51.078;12.108;2023-08-06T08:10:34;17.30;99.90
37242;DHT22;23135;51.078;12.108;2023-08-06T08:13:03;17.30;99.90
37242;DHT22;23135;51.078;12.108;2023-08-06T08:15:30;17.40;99.90
37242;DHT22;23135;51.078;12.108;2023-08-06T08:17:56;17.40;99.90
37242;DHT22;23135;51.078;12.108;2023-08-06T08:20:22;17.50;99.90
37242;DHT22;23135;51.078;12.108;2023-08-06T08:22:47;17.60;99.90
37242;DHT22;23135;51.078;12.108;2023-08-06T08:25:13;17.70;99.90
37242;DHT22;23135;51.078;12.108;2023-08-06T08:27:39;17.80;99.90
37242;DHT22;23135;51.078;12.108;2023-08-06T08:30:05;17.90;99.90
37242;DHT22;23135;51.078;12.108;2023-08-06T08:32:31;17.90;99.90
37242;DHT22;23135;51.078;12.108;2023-08-06T08:34:57;18.00;99.90
37242;DHT22;23135;51.078;12.108;2023-08-06T08:37:23;18.20;99.90
37242;DHT22;23135;51.078;12.108;2023-08-06T08:39:49;18.30;99.90
37242;DHT22;23135;51.078;12.108;2023-08-06T08:42:16;18.60;99.90
37242;DHT22;23135;51.078;12.108;2023-08-06T08:44:42;18.60;99.90
37242;DHT22;23135;51.078;12.108;2023-08-06T08:47:08;18.60;99.90
37242;DHT22;23135;51.078;12.108;2023-08-06T08:49:36;18.80;99.90
37242;DHT22;23135;51.078;12.108;2023-08-06T08:52:03;19.00;99.90
37242;DHT22;23135;51.078;12.108;2023-08-06T08:54:32;19.10;99.90
37242;DHT22;23135;51.078;12.108;2023-08-06T08:56:58;19.30;99.90
37242;DHT22;23135;51.078;12.108;2023-08-06T08:59:24;19.40;99.90
37242;DHT22;23135;51.078;12.108;2023-08-06T09:01:50;19.50;99.90
37242;DHT22;23135;51.078;12.108;2023-08-06T09:04:17;19.60;99.90
37242;DHT22;23135;51.078;12.108;2023-08-06T09:06:46;19.60;99.90
37242;DHT22;23135;51.078;12.108;2023-08-06T09:09:22;19.90;99.90
37242;DHT22;23135;51.078;12.108;2023-08-06T09:11:50;20.10;99.90
37242;DHT22;23135;51.078;12.108;2023-08-06T09:14:16;20.40;99.90
37242;DHT22;23135;51.078;12.108;2023-08-06T09:16:43;20.50;99.90
37242;DHT22;23135;51.078;12.108;2023-08-06T09:19:12;20.60;99.90
37242;DHT22;23135;51.078;12.108;2023-08-06T09:21:39;20.50;99.90
37242;DHT22;23135;51.078;12.108;2023-08-06T09:24:09;20.50;99.90
37242;DHT22;23135;51.078;12.108;2023-08-06T09:26:37;20.70;99.90
37242;DHT22;23135;51.078;12.108;2023-08-06T09:29:05;20.60;99.90
37242;DHT22;23135;51.078;12.108;2023-08-06T09:31:46;20.50;99.90
37242;DHT22;23135;51.078;12.108;2023-08-06T09:34:16;20.40;99.90
37242;DHT22;23135;51.078;12.108;2023-08-06T09:36:47;20.50;99.90
37242;DHT22;23135;51.078;12.108;2023-08-06T09:39:14;20.60;99.90
37242;DHT22;23135;51.078;12.108;2023-08-06T09:41:41;20.60;99.90
37242;DHT22;23135;51.078;12.108;2023-08-06T09:44:18;20.40;99.90
37242;DHT22;23135;51.078;12.108;2023-08-06T09:46:53;20.30;99.90
37242;DHT22;23135;51.078;12.108;2023-08-06T09:49:20;20.30;99.90
37242;DHT22;23135;51.078;12.108;2023-08-06T09:51:50;20.40;99.90
37242;DHT22;23135;51.078;12.108;2023-08-06T09:54:17;20.50;99.90
37242;DHT22;23135;51.078;12.108;2023-08-06T09:56:46;20.30;99.90
37242;DHT22;23135;51.078;12.108;2023-08-06T09:59:13;20.30;99.90
37242;DHT22;23135;51.078;12.108;2023-08-06T10:01:39;20.50;99.90
37242;DHT22;23135;51.078;12.108;2023-08-06T10:04:06;20.80;99.90
37242;DHT22;23135;51.078;12.108;2023-08-06T10:06:35;20.70;99.90
37242;DHT22;23135;51.078;12.108;2023-08-06T10:09:02;20.40;99.90
37242;DHT22;23135;51.078;12.108;2023-08-06T10:11:29;20.60;99.90
37242;DHT22;23135;51.078;12.108;2023-08-06T10:14:02;20.70;99.90
37242;DHT22;23135;51.078;12.108;2023-08-06T10:16:29;20.50;99.90
37242;DHT22;23135;51.078;12.108;2023-08-06T10:18:56;20.50;99.90
37242;DHT22;23135;51.078;12.108;2023-08-06T10:21:24;20.40;99.90
37242;DHT22;23135;51.078;12.108;2023-08-06T10:23:54;20.20;99.90
37242;DHT22;23135;51.078;12.108;2023-08-06T10:26:20;20.10;99.90
37242;DHT22;23135;51.078;12.108;2023-08-06T10:28:46;20.20;99.90
37242;DHT22;23135;51.078;12.108;2023-08-06T10:31:11;20.10;99.90
37242;DHT22;23135;51.078;12.108;2023-08-06T10:33:41;20.20;99.90
37242;DHT22;23135;51.078;12.108;2023-08-06T10:36:09;20.20;99.90
37242;DHT22;23135;51.078;12.108;2023-08-06T10:38:36;20.40;99.90
37242;DHT22;23135;51.078;12.108;2023-08-06T10:41:29;20.60;99.90
37242;DHT22;23135;51.078;12.108;2023-08-06T10:44:11;20.90;99.90
37242;DHT22;23135;51.078;12.108;2023-08-06T10:46:37;21.10;99.90
37242;DHT22;23135;51.078;12.108;2023-08-06T10:49:04;21.40;99.90
37242;DHT22;23135;51.078;12.108;2023-08-06T10:51:30;21.40;99.90
37242;DHT22;23135;51.078;12.108;2023-08-06T10:53:56;21.60;99.90
37242;DHT22;23135;51.078;12.108;2023-08-06T10:56:24;21.80;99.90
37242;DHT22;23135;51.078;12.108;2023-08-06T10:58:53;22.10;99.90
37242;DHT22;23135;51.078;12.108;2023-08-06T11:01:19;22.70;99.90
37242;DHT22;23135;51.078;12.108;2023-08-06T11:03:46;23.30;99.90
37242;DHT22;23135;51.078;12.108;2023-08-06T11:06:20;23.40;99.90
37242;DHT22;23135;51.078;12.108;2023-08-06T11:08:53;23.70;99.90
37242;DHT22;23135;51.078;12.108;2023-08-06T11:11:20;24.10;99.90
37242;DHT22;23135;51.078;12.108;2023-08-06T11:13:48;24.00;99.20
37242;DHT22;23135;51.078;12.108;2023-08-06T11:16:22;23.40;99.90
37242;DHT22;23135;51.078;12.108;2023-08-06T11:18:51;22.90;99.90
37242;DHT22;23135;51.078;12.108;2023-08-06T11:21:21;22.50;99.90
37242;DHT22;23135;51.078;12.108;2023-08-06T11:23:47;22.10;99.90
37242;DHT22;23135;51.078;12.108;2023-08-06T11:26:21;21.90;99.90
37242;DHT22;23135;51.078;12.108;2023-08-06T11:28:49;21.70;99.90
37242;DHT22;23135;51.078;12.108;2023-08-06T11:31:21;21.60;99.90
37242;DHT22;23135;51.078;12.108;2023-08-06T11:33:47;21.40;99.90
37242;DHT22;23135;51.078;12.108;2023-08-06T11:36:13;21.50;99.90
37242;DHT22;23135;51.078;12.108;2023-08-06T11:38:38;21.60;99.90
37242;DHT22;23135;51.078;12.108;2023-08-06T11:41:06;21.80;99.90
37242;DHT22;23135;51.078;12.108;2023-08-06T11:43:32;21.90;99.90
37242;DHT22;23135;51.078;12.108;2023-08-06T11:45:58;22.50;99.90
37242;DHT22;23135;51.078;12.108;2023-08-06T11:48:25;22.80;99.90
37242;DHT22;23135;51.078;12.108;2023-08-06T11:50:54;23.10;99.90
37242;DHT22;23135;51.078;12.108;2023-08-06T11:53:19;22.90;99.90
37242;DHT22;23135;51.078;12.108;2023-08-06T11:55:45;23.00;99.90
37242;DHT22;23135;51.078;12.108;2023-08-06T11:58:11;23.80;99.10
37242;DHT22;23135;51.078;12.108;2023-08-06T12:00:40;23.90;98.50
37242;DHT22;23135;51.078;12.108;2023-08-06T12:03:05;24.40;98.80
37242;DHT22;23135;51.078;12.108;2023-08-06T12:05:32;25.00;97.40
37242;DHT22;23135;51.078;12.108;2023-08-06T12:08:02;24.60;96.80
37242;DHT22;23135;51.078;12.108;2023-08-06T12:10:30;24.20;96.10
37242;DHT22;23135;51.078;12.108;2023-08-06T12:12:55;23.50;95.60
37242;DHT22;23135;51.078;12.108;2023-08-06T12:15:22;23.20;96.10
37242;DHT22;23135;51.078;12.108;2023-08-06T12:17:48;23.10;97.60
37242;DHT22;23135;51.078;12.108;2023-08-06T12:20:13;23.30;98.30
37242;DHT22;23135;51.078;12.108;2023-08-06T12:22:39;23.50;96.60
37242;DHT22;23135;51.078;12.108;2023-08-06T12:25:09;24.20;96.70
37242;DHT22;23135;51.078;12.108;2023-08-06T12:27:44;24.90;96.80
37242;DHT22;23135;51.078;12.108;2023-08-06T12:30:11;24.60;95.90
37242;DHT22;23135;51.078;12.108;2023-08-06T12:32:38;24.30;96.40
37242;DHT22;23135;51.078;12.108;2023-08-06T12:35:04;23.80;96.60
37242;DHT22;23135;51.078;12.108;2023-08-06T12:37:32;23.60;97.20
37242;DHT22;23135;51.078;12.108;2023-08-06T12:39:58;23.40;96.70
37242;DHT22;23135;51.078;12.108;2023-08-06T12:42:23;23.00;97.40
37242;DHT22;23135;51.078;12.108;2023-08-06T12:44:49;22.80;98.10
37242;DHT22;23135;51.078;12.108;2023-08-06T12:47:16;22.60;98.10
37242;DHT22;23135;51.078;12.108;2023-08-06T12:49:42;22.70;98.50
37242;DHT22;23135;51.078;12.108;2023-08-06T12:52:08;22.90;98.40
37242;DHT22;23135;51.078;12.108;2023-08-06T12:54:34;22.90;99.00
37242;DHT22;23135;51.078;12.108;2023-08-06T12:57:03;23.00;97.70
37242;DHT22;23135;51.078;12.108;2023-08-06T12:59:28;23.30;98.50
37242;DHT22;23135;51.078;12.108;2023-08-06T13:01:54;23.70;98.70
37242;DHT22;23135;51.078;12.108;2023-08-06T13:04:20;23.70;97.60
37242;DHT22;23135;51.078;12.108;2023-08-06T13:06:45;24.30;97.50
37242;DHT22;23135;51.078;12.108;2023-08-06T13:09:12;25.20;96.30
37242;DHT22;23135;51.078;12.108;2023-08-06T13:11:38;26.10;95.30
37242;DHT22;23135;51.078;12.108;2023-08-06T13:14:14;26.00;93.00
37242;DHT22;23135;51.078;12.108;2023-08-06T13:16:41;26.00;92.90
37242;DHT22;23135;51.078;12.108;2023-08-06T13:19:07;25.80;94.10
37242;DHT22;23135;51.078;12.108;2023-08-06T13:21:35;25.70;92.90
37242;DHT22;23135;51.078;12.108;2023-08-06T13:24:02;25.40;92.60
37242;DHT22;23135;51.078;12.108;2023-08-06T13:26:31;24.90;92.90
37242;DHT22;23135;51.078;12.108;2023-08-06T13:29:00;24.20;93.90
37242;DHT22;23135;51.078;12.108;2023-08-06T13:31:27;23.90;94.00
37242;DHT22;23135;51.078;12.108;2023-08-06T13:33:54;23.70;94.50
37242;DHT22;23135;51.078;12.108;2023-08-06T13:36:21;23.50;94.60
37242;DHT22;23135;51.078;12.108;2023-08-06T13:38:47;23.20;94.40
37242;DHT22;23135;51.078;12.108;2023-08-06T13:41:12;23.00;95.30
37242;DHT22;23135;51.078;12.108;2023-08-06T13:43:38;23.00;95.90
37242;DHT22;23135;51.078;12.108;2023-08-06T13:46:04;23.00;96.80
37242;DHT22;23135;51.078;12.108;2023-08-06T13:48:30;22.90;95.70
37242;DHT22;23135;51.078;12.108;2023-08-06T13:50:55;23.40;95.50
37242;DHT22;23135;51.078;12.108;2023-08-06T13:53:21;23.40;95.90
37242;DHT22;23135;51.078;12.108;2023-08-06T13:55:47;23.20;95.70
37242;DHT22;23135;51.078;12.108;2023-08-06T13:58:12;22.90;95.50
37242;DHT22;23135;51.078;12.108;2023-08-06T14:00:38;22.80;96.00
37242;DHT22;23135;51.078;12.108;2023-08-06T14:03:04;22.60;96.50
37242;DHT22;23135;51.078;12.108;2023-08-06T14:05:29;22.50;97.00
37242;DHT22;23135;51.078;12.108;2023-08-06T14:07:55;22.50;97.70
37242;DHT22;23135;51.078;12.108;2023-08-06T14:10:20;22.40;97.40
37242;DHT22;23135;51.078;12.108;2023-08-06T14:12:46;22.30;97.70
37242;DHT22;23135;51.078;12.108;2023-08-06T14:15:11;22.20;98.30
37242;DHT22;23135;51.078;12.108;2023-08-06T14:17:37;21.90;97.50
37242;DHT22;23135;51.078;12.108;2023-08-06T14:20:04;21.90;98.60
37242;DHT22;23135;51.078;12.108;2023-08-06T14:22:30;21.70;98.90
37242;DHT22;23135;51.078;12.108;2023-08-06T14:24:57;21.20;99.90
37242;DHT22;23135;51.078;12.108;2023-08-06T14:27:23;20.90;99.90
37242;DHT22;23135;51.078;12.108;2023-08-06T14:29:49;20.40;99.90
37242;DHT22;23135;51.078;12.108;2023-08-06T14:32:15;19.80;99.90
37242;DHT22;23135;51.078;12.108;2023-08-06T14:34:44;18.80;99.90
37242;DHT22;23135;51.078;12.108;2023-08-06T14:37:10;18.10;99.90
37242;DHT22;23135;51.078;12.108;2023-08-06T14:39:36;17.60;99.90
37242;DHT22;23135;51.078;12.108;2023-08-06T14:42:03;17.30;99.90
37242;DHT22;23135;51.078;12.108;2023-08-06T14:44:28;17.20;99.90
37242;DHT22;23135;51.078;12.108;2023-08-06T14:46:54;17.10;99.90
37242;DHT22;23135;51.078;12.108;2023-08-06T14:49:19;17.00;99.90
37242;DHT22;23135;51.078;12.108;2023-08-06T14:51:45;17.00;99.90
37242;DHT22;23135;51.078;12.108;2023-08-06T14:54:11;17.00;99.90
37242;DHT22;23135;51.078;12.108;2023-08-06T14:56:37;17.20;99.90
37242;DHT22;23135;51.078;12.108;2023-08-06T14:59:02;17.40;99.90
37242;DHT22;23135;51.078;12.108;2023-08-06T15:01:28;17.70;99.90
37242;DHT22;23135;51.078;12.108;2023-08-06T15:03:54;18.00;99.90
37242;DHT22;23135;51.078;12.108;2023-08-06T15:06:19;18.30;99.90
37242;DHT22;23135;51.078;12.108;2023-08-06T15:08:45;18.40;99.90
37242;DHT22;23135;51.078;12.108;2023-08-06T15:11:13;18.50;99.90
37242;DHT22;23135;51.078;12.108;2023-08-06T15:13:39;18.50;99.90
37242;DHT22;23135;51.078;12.108;2023-08-06T15:16:04;18.50;99.90
37242;DHT22;23135;51.078;12.108;2023-08-06T15:18:30;18.50;99.90